Terminal Aerodrome Forecast
Issued by NWS Cleveland, OH

Home | Current Version | Previous Version | Graphics & Text | Print | Product List | Glossary On
Versions: 1 2 3 4 5 6 7 8 9 10 11 12 13 14 15 16 17 18 19 20 21 22 23 24 25 26 27 28 29
000
FTUS41 KCLE 212159 AAA
TAFTOL
TAF AMD
KTOL 212159Z 2122/2218 24006KT P6SM OVC080
     FM220200 22004KT P6SM OVC025
     FM220400 VRB03KT 3SM BR OVC008
     FM220800 VRB03KT 1/2SM FG OVC003
     FM221400 22007KT 4SM BR BKN006 OVC022=

USA.gov is the U.S. government's official web portal to all federal, state and local government web resources and services.